Time;durP1;ratioP1;P1;durP2;ratioP2;P2;SDS_P1;SDS_P2;PMS_P1;PMS_P2;Temp;Humidity;BMP_temperature;BMP_pressure;BME280_temperature;BME280_humidity;BME280_pressure;Samples;Min_cycle;Max_cycle;Signal;HPM_P1;HPM_P2
2023/10/09 00:03:03;;;;;;;1.20;0.67;;;;;;;;;;5074290;28;20238;-85
2023/10/09 00:05:45;;;;;;;5.50;2.83;;;;;;;;;;5074272;28;20313;-85
2023/10/09 00:08:19;;;;;;;14.20;4.17;;;;;;;;;;5074086;28;20205;-85
2023/10/09 00:10:52;;;;;;;3.80;3.10;;;;;;;;;;5074221;28;20229;-83
2023/10/09 00:13:30;;;;;;;3.37;2.67;;;;;;;;;;5073654;28;20205;-84
2023/10/09 00:16:08;;;;;;;5.03;3.33;;;;;;;;;;5073173;28;20194;-83
2023/10/09 00:18:37;;;;;;;1.40;1.20;;;;;;;;;;5073436;28;20236;-84
2023/10/09 00:21:12;;;;;;;4.43;2.60;;;;;;;;;;5073407;28;20220;-84
2023/10/09 00:23:41;;;;;;;8.07;3.67;;;;;;;;;;5073751;28;20303;-83
2023/10/09 00:26:11;;;;;;;4.83;2.97;;;;;;;;;;5073003;28;20256;-83
2023/10/09 00:28:44;;;;;;;6.33;3.37;;;;;;;;;;5073614;28;20202;-83
2023/10/09 00:31:15;;;;;;;5.30;2.57;;;;;;;;;;5073165;28;20209;-83
2023/10/09 00:33:44;;;;;;;10.00;5.17;;;;;;;;;;5073469;28;20206;-84
2023/10/09 00:36:18;;;;;;;6.13;3.77;;;;;;;;;;5073533;28;20249;-83
2023/10/09 00:38:50;;;;;;;2.27;2.10;;;;;;;;;;5072985;28;20191;-83
2023/10/09 00:41:22;;;;;;;6.07;2.97;;;;;;;;;;5073345;28;20309;-83
2023/10/09 00:43:52;;;;;;;6.93;3.90;;;;;;;;;;5072643;28;20201;-83
2023/10/09 00:46:27;;;;;;;11.50;4.27;;;;;;;;;;5073345;28;20202;-83
2023/10/09 00:48:57;;;;;;;2.83;2.33;;;;;;;;;;5073374;28;20204;-85
2023/10/09 00:51:26;;;;;;;6.03;3.67;;;;;;;;;;5073555;28;20308;-85
2023/10/09 00:53:59;;;;;;;4.70;3.13;;;;;;;;;;5072533;28;20191;-85
2023/10/09 00:56:39;;;;;;;6.30;3.43;;;;;;;;;;5073398;28;20202;-86
2023/10/09 00:59:13;;;;;;;8.67;3.93;;;;;;;;;;5072716;28;20190;-85
2023/10/09 01:01:48;;;;;;;3.13;2.00;;;;;;;;;;5072798;28;20217;-85
2023/10/09 01:04:17;;;;;;;5.13;2.93;;;;;;;;;;5072696;28;20213;-86
2023/10/09 01:06:53;;;;;;;7.27;4.17;;;;;;;;;;5072915;28;20205;-85
2023/10/09 01:09:22;;;;;;;5.03;3.43;;;;;;;;;;5072619;28;20194;-86
2023/10/09 01:12:03;;;;;;;9.43;5.87;;;;;;;;;;5072314;28;20198;-85
2023/10/09 01:14:36;;;;;;;9.60;4.10;;;;;;;;;;5072330;28;20211;-85
2023/10/09 01:17:08;;;;;;;7.40;3.53;;;;;;;;;;5072720;28;20252;-85
2023/10/09 01:19:37;;;;;;;8.07;4.60;;;;;;;;;;5072626;28;20229;-85
2023/10/09 01:22:12;;;;;;;3.63;2.80;;;;;;;;;;5072068;28;20218;-85
2023/10/09 01:24:43;;;;;;;9.17;5.17;;;;;;;;;;5072493;28;20208;-83
2023/10/09 01:27:14;;;;;;;4.80;3.03;;;;;;;;;;5072075;28;20235;-84
2023/10/09 01:29:45;;;;;;;2.17;1.97;;;;;;;;;;5072349;28;20204;-83
2023/10/09 01:32:18;;;;;;;2.70;1.70;;;;;;;;;;5071840;28;20303;-83
2023/10/09 01:34:49;;;;;;;8.23;2.97;;;;;;;;;;5072121;28;20194;-83
2023/10/09 01:37:22;;;;;;;10.27;3.47;;;;;;;;;;5072468;28;20238;-83
2023/10/09 01:39:54;;;;;;;7.77;4.27;;;;;;;;;;5072275;28;20256;-85
2023/10/09 01:42:27;;;;;;;1.20;1.17;;;;;;;;;;5071494;28;20231;-85
2023/10/09 01:44:58;;;;;;;8.37;4.70;;;;;;;;;;5072951;28;20205;-85
2023/10/09 01:47:31;;;;;;;4.20;3.47;;;;;;;;;;5072807;28;20229;-85
2023/10/09 01:50:04;;;;;;;3.60;3.03;;;;;;;;;;5071867;28;20213;-84
2023/10/09 01:52:35;;;;;;;4.57;2.90;;;;;;;;;;5071767;28;20205;-85
2023/10/09 01:55:07;;;;;;;5.77;2.63;;;;;;;;;;5072133;28;20201;-85
2023/10/09 01:57:39;;;;;;;3.57;2.90;;;;;;;;;;5072348;28;20203;-85
2023/10/09 02:00:09;;;;;;;1.33;1.23;;;;;;;;;;5071782;28;20195;-85
2023/10/09 02:02:38;;;;;;;4.13;2.60;;;;;;;;;;5071886;28;20224;-85
2023/10/09 02:05:10;;;;;;;4.97;3.13;;;;;;;;;;5072572;28;20205;-85
2023/10/09 02:07:44;;;;;;;2.53;2.43;;;;;;;;;;5071890;28;20214;-84
2023/10/09 02:10:25;;;;;;;2.30;1.70;;;;;;;;;;5071014;28;20278;-84
2023/10/09 02:12:57;;;;;;;6.77;3.73;;;;;;;;;;5072051;28;20201;-83
2023/10/09 02:18:39;;;;;;;4.67;3.23;;;;;;;;;;5149875;27;20556;-82
2023/10/09 02:21:15;;;;;;;1.80;1.10;;;;;;;;;;5150630;27;20217;-82
2023/10/09 02:23:49;;;;;;;4.57;3.27;;;;;;;;;;5150725;27;20231;-82
2023/10/09 02:26:22;;;;;;;5.47;3.40;;;;;;;;;;5151632;27;20195;-82
2023/10/09 02:28:58;;;;;;;6.63;3.90;;;;;;;;;;5150170;27;20197;-84
2023/10/09 02:31:35;;;;;;;3.77;2.30;;;;;;;;;;5150792;27;20200;-84
2023/10/09 02:34:11;;;;;;;2.93;2.17;;;;;;;;;;5150988;27;20232;-84
2023/10/09 02:36:43;;;;;;;6.27;3.87;;;;;;;;;;5150493;27;20258;-84
2023/10/09 02:39:22;;;;;;;9.43;6.50;;;;;;;;;;5150173;27;20262;-84
2023/10/09 02:41:54;;;;;;;7.50;5.60;;;;;;;;;;5150579;27;20196;-82
2023/10/09 02:44:31;;;;;;;5.43;2.87;;;;;;;;;;5150935;27;20202;-82
2023/10/09 02:47:05;;;;;;;3.93;3.50;;;;;;;;;;5150020;27;20199;-83
2023/10/09 02:49:35;;;;;;;7.13;4.23;;;;;;;;;;5149971;27;20201;-83
2023/10/09 02:52:07;;;;;;;8.50;2.33;;;;;;;;;;5150327;27;20382;-83
2023/10/09 02:54:36;;;;;;;3.03;2.67;;;;;;;;;;5150095;27;20203;-82
2023/10/09 02:57:07;;;;;;;4.93;2.77;;;;;;;;;;5149518;27;20303;-82
2023/10/09 02:59:38;;;;;;;7.73;5.47;;;;;;;;;;5150039;27;20199;-82
2023/10/09 03:02:07;;;;;;;8.27;5.77;;;;;;;;;;5150163;27;20198;-83
2023/10/09 03:04:38;;;;;;;9.10;2.83;;;;;;;;;;5150008;27;20210;-82
2023/10/09 03:07:07;;;;;;;5.70;3.03;;;;;;;;;;5149708;27;20306;-82
2023/10/09 03:09:37;;;;;;;5.73;3.63;;;;;;;;;;5149922;27;20313;-83
2023/10/09 03:12:09;;;;;;;5.73;2.47;;;;;;;;;;5150733;27;20205;-84
2023/10/09 03:14:39;;;;;;;9.23;3.67;;;;;;;;;;5150231;27;20256;-84
2023/10/09 03:17:11;;;;;;;6.37;2.67;;;;;;;;;;5149398;27;20258;-84
2023/10/09 03:19:43;;;;;;;7.70;4.00;;;;;;;;;;5149742;27;20212;-84
2023/10/09 03:22:12;;;;;;;6.30;4.07;;;;;;;;;;5149899;27;20196;-83
2023/10/09 03:24:43;;;;;;;12.87;5.93;;;;;;;;;;5149824;27;20449;-83
2023/10/09 03:27:15;;;;;;;7.73;2.27;;;;;;;;;;5149146;27;20199;-82
2023/10/09 03:29:49;;;;;;;6.60;4.63;;;;;;;;;;5135625;27;20196;-82
2023/10/09 03:32:19;;;;;;;10.77;6.10;;;;;;;;;;5135796;27;20206;-82
2023/10/09 03:34:51;;;;;;;8.53;5.60;;;;;;;;;;5135183;27;20210;-83
2023/10/09 03:37:33;;;;;;;9.53;5.57;;;;;;;;;;5134945;27;20238;-83
2023/10/09 03:40:04;;;;;;;6.30;3.67;;;;;;;;;;5135318;27;20205;-82
2023/10/09 03:42:36;;;;;;;3.33;2.63;;;;;;;;;;5136079;27;20196;-82
2023/10/09 03:45:12;;;;;;;4.03;2.20;;;;;;;;;;5135069;27;20204;-83
2023/10/09 03:47:43;;;;;;;3.60;2.23;;;;;;;;;;5135322;27;20198;-83
2023/10/09 03:50:26;;;;;;;5.47;2.17;;;;;;;;;;5136440;27;20203;-84
2023/10/09 03:52:55;;;;;;;7.00;6.33;;;;;;;;;;5135920;27;20200;-84
2023/10/09 03:55:27;;;;;;;6.50;3.20;;;;;;;;;;5135431;27;20205;-84
2023/10/09 03:57:58;;;;;;;4.80;2.87;;;;;;;;;;5135492;27;20211;-84
2023/10/09 04:00:28;;;;;;;9.47;3.20;;;;;;;;;;5135834;27;20265;-84
2023/10/09 04:02:57;;;;;;;4.87;2.73;;;;;;;;;;5135109;27;20206;-82
2023/10/09 04:05:28;;;;;;;2.60;2.07;;;;;;;;;;5134664;27;20198;-82
2023/10/09 04:07:58;;;;;;;4.57;2.43;;;;;;;;;;5135099;27;20197;-82
2023/10/09 04:10:43;;;;;;;13.07;6.30;;;;;;;;;;5135072;27;20201;-82
2023/10/09 04:13:17;;;;;;;1.97;1.80;;;;;;;;;;5134629;27;20204;-82
2023/10/09 04:15:46;;;;;;;4.93;2.97;;;;;;;;;;5134847;27;20224;-82
2023/10/09 04:18:20;;;;;;;4.87;2.67;;;;;;;;;;5134430;27;20240;-82
2023/10/09 04:26:39;;;;;;;14.30;6.17;;;;;;;;;;5071235;28;20303;-81
2023/10/09 04:29:10;;;;;;;8.67;4.73;;;;;;;;;;5108693;27;20210;-82
2023/10/09 04:31:39;;;;;;;4.13;2.87;;;;;;;;;;5134595;27;20225;-81
2023/10/09 04:37:00;;;;;;;4.63;2.87;;;;;;;;;;5129770;27;20228;-82
2023/10/09 04:39:46;;;;;;;7.37;3.83;;;;;;;;;;5133806;27;20228;-81
2023/10/09 04:42:36;;;;;;;13.47;6.67;;;;;;;;;;5133903;27;20294;-82
2023/10/09 04:47:57;;;;;;;1.17;1.07;;;;;;;;;;5131691;27;20192;-81
2023/10/09 04:53:23;;;;;;;4.07;3.57;;;;;;;;;;5133705;27;20195;-82
2023/10/09 04:56:04;;;;;;;1.87;1.77;;;;;;;;;;5134167;27;20204;-81
2023/10/09 04:58:39;;;;;;;9.30;3.33;;;;;;;;;;5133591;27;20214;-82
2023/10/09 05:01:14;;;;;;;2.37;1.53;;;;;;;;;;5133443;27;20192;-81
2023/10/09 05:03:52;;;;;;;10.67;4.80;;;;;;;;;;5134377;27;20203;-84
2023/10/09 05:09:15;;;;;;;7.77;3.63;;;;;;;;;;5134158;27;20288;-84
2023/10/09 05:12:09;;;;;;;3.93;2.57;;;;;;;;;;5133283;27;20224;-84
2023/10/09 05:14:47;;;;;;;5.70;3.33;;;;;;;;;;5134096;27;20199;-84
2023/10/09 05:17:17;;;;;;;7.17;3.27;;;;;;;;;;5132997;27;20238;-84
2023/10/09 05:20:55;;;;;;;23.00;1.67;;;;;;;;;;5133022;27;20249;-84
2023/10/09 05:22:57;;;;;;;8.97;5.60;;;;;;;;;;5133857;27;20216;-84
2023/10/09 05:25:53;;;;;;;7.20;3.73;;;;;;;;;;5133483;27;20204;-84
2023/10/09 05:28:48;;;;;;;4.63;3.43;;;;;;;;;;5134206;27;20207;-84
2023/10/09 05:34:01;;;;;;;3.00;2.03;;;;;;;;;;5134051;27;20303;-83
2023/10/09 05:36:35;;;;;;;6.87;2.83;;;;;;;;;;5133645;27;20202;-83
2023/10/09 05:39:22;;;;;;;0.77;0.77;;;;;;;;;;5133185;27;20232;-83
2023/10/09 05:41:59;;;;;;;1.37;0.87;;;;;;;;;;5133887;27;20197;-83
2023/10/09 05:47:31;;;;;;;1.53;1.43;;;;;;;;;;5128621;27;20216;-84
2023/10/09 05:50:34;;;;;;;4.30;2.93;;;;;;;;;;5120586;27;20201;-83
2023/10/09 05:53:09;;;;;;;2.70;2.43;;;;;;;;;;5121979;27;20250;-84
2023/10/09 05:57:08;;;;;;;2.10;1.73;;;;;;;;;;5120879;27;20199;-85
2023/10/09 06:04:17;;;;;;;5.93;3.13;;;;;;;;;;5133156;27;20211;-84
2023/10/09 06:06:46;;;;;;;2.23;2.03;;;;;;;;;;5133760;27;20294;-84
2023/10/09 06:09:49;;;;;;;5.10;2.30;;;;;;;;;;5133689;27;20195;-84
2023/10/09 06:15:30;;;;;;;2.50;2.17;;;;;;;;;;5133125;28;20276;-82
2023/10/09 06:18:25;;;;;;;3.43;2.80;;;;;;;;;;5132705;27;20326;-81
2023/10/09 06:26:26;;;;;;;3.80;2.07;;;;;;;;;;5132397;27;20202;-82
2023/10/09 06:31:59;;;;;;;1.40;1.37;;;;;;;;;;5132629;27;20201;-81
2023/10/09 06:34:32;;;;;;;3.83;1.90;;;;;;;;;;5133440;27;20195;-82
2023/10/09 06:37:07;;;;;;;1.37;1.27;;;;;;;;;;5132479;27;20294;-82
2023/10/09 06:39:50;;;;;;;8.30;1.93;;;;;;;;;;5133276;27;20289;-82
2023/10/09 06:42:33;;;;;;;2.40;2.20;;;;;;;;;;5133386;27;20214;-81
2023/10/09 06:45:15;;;;;;;0.70;0.70;;;;;;;;;;5132768;27;20200;-82
2023/10/09 06:47:55;;;;;;;0.73;0.73;;;;;;;;;;5132404;27;20199;-82
2023/10/09 06:50:24;;;;;;;0.27;0.27;;;;;;;;;;5133330;27;20265;-82
2023/10/09 06:55:49;;;;;;;1.30;1.13;;;;;;;;;;5132443;27;20214;-82
2023/10/09 06:58:23;;;;;;;1.43;1.33;;;;;;;;;;5133117;27;20204;-82
2023/10/09 07:03:54;;;;;;;0.30;0.30;;;;;;;;;;5134174;27;20204;-82
2023/10/09 07:06:25;;;;;;;0.20;0.20;;;;;;;;;;5136391;27;20245;-82
2023/10/09 07:09:15;;;;;;;1.93;1.20;;;;;;;;;;5136444;27;20216;-81
2023/10/09 07:11:57;;;;;;;1.47;1.37;;;;;;;;;;5137193;27;20254;-82
2023/10/09 07:17:23;;;;;;;1.07;0.83;;;;;;;;;;5136326;27;20230;-82
2023/10/09 07:22:56;;;;;;;0.27;0.27;;;;;;;;;;5099179;27;20204;-82
2023/10/09 07:25:41;;;;;;;0.30;0.30;;;;;;;;;;5136940;27;20314;-82
2023/10/09 07:28:29;;;;;;;0.47;0.47;;;;;;;;;;5136525;27;20254;-82
2023/10/09 07:31:02;;;;;;;1.23;1.23;;;;;;;;;;5136375;27;20202;-82
2023/10/09 07:36:15;;;;;;;0.27;0.27;;;;;;;;;;5134076;27;20200;-84
2023/10/09 07:38:45;;;;;;;0.60;0.60;;;;;;;;;;5135998;27;20277;-84
2023/10/09 07:44:18;;;;;;;5.00;3.50;;;;;;;;;;5135753;27;20202;-82
2023/10/09 07:47:13;;;;;;;1.17;1.17;;;;;;;;;;5136346;27;20201;-82
2023/10/09 07:49:42;;;;;;;2.97;2.17;;;;;;;;;;5135860;27;20200;-83
2023/10/09 07:52:12;;;;;;;6.23;2.70;;;;;;;;;;5135359;27;20200;-85
2023/10/09 07:54:49;;;;;;;5.87;3.73;;;;;;;;;;5136267;27;20205;-85
2023/10/09 07:57:25;;;;;;;12.27;6.20;;;;;;;;;;5136566;27;20206;-85
2023/10/09 08:00:11;;;;;;;2.40;2.20;;;;;;;;;;5135591;27;20219;-85
2023/10/09 08:02:41;;;;;;;6.77;3.03;;;;;;;;;;5135675;27;20206;-85
2023/10/09 08:05:19;;;;;;;4.47;3.07;;;;;;;;;;5136496;27;20211;-85
2023/10/09 08:07:58;;;;;;;5.70;3.30;;;;;;;;;;5135741;27;20206;-85
2023/10/09 08:16:21;;;;;;;7.33;3.90;;;;;;;;;;5098890;27;20236;-85
2023/10/09 08:18:56;;;;;;;8.90;3.73;;;;;;;;;;5135225;27;20227;-85
2023/10/09 08:21:41;;;;;;;2.93;2.73;;;;;;;;;;5135662;27;20207;-85
2023/10/09 08:27:37;;;;;;;5.73;2.87;;;;;;;;;;5135737;27;20255;-85
2023/10/09 08:29:47;;;;;;;3.83;2.77;;;;;;;;;;5134093;27;20209;-85
2023/10/09 08:32:38;;;;;;;0.97;0.97;;;;;;;;;;5135262;27;20223;-84
2023/10/09 08:35:19;;;;;;;6.27;3.53;;;;;;;;;;5135699;27;20205;-84
2023/10/09 08:37:48;;;;;;;3.23;2.17;;;;;;;;;;5135087;27;20228;-84
2023/10/09 08:40:20;;;;;;;3.53;2.57;;;;;;;;;;5133879;27;20229;-84
2023/10/09 08:42:54;;;;;;;5.67;3.00;;;;;;;;;;5135513;27;20247;-84
2023/10/09 08:45:27;;;;;;;4.03;2.70;;;;;;;;;;5135759;27;20291;-84
2023/10/09 08:47:56;;;;;;;2.97;2.07;;;;;;;;;;5135437;27;20296;-84
2023/10/09 08:50:28;;;;;;;5.40;3.37;;;;;;;;;;5135095;27;20220;-84
2023/10/09 08:52:57;;;;;;;4.23;0.87;;;;;;;;;;5134955;27;20313;-84
2023/10/09 08:55:26;;;;;;;6.73;3.43;;;;;;;;;;5134698;27;20202;-84
2023/10/09 08:57:57;;;;;;;8.27;4.40;;;;;;;;;;5134453;27;20268;-84
2023/10/09 09:00:33;;;;;;;2.70;1.80;;;;;;;;;;5134499;27;20236;-84
2023/10/09 09:03:01;;;;;;;5.97;2.90;;;;;;;;;;5134667;27;20206;-84
2023/10/09 09:05:30;;;;;;;8.50;2.60;;;;;;;;;;5134901;27;20280;-84
2023/10/09 09:07:59;;;;;;;3.60;1.80;;;;;;;;;;5134290;27;20239;-84
2023/10/09 09:10:35;;;;;;;5.57;3.93;;;;;;;;;;5134811;27;20289;-84
2023/10/09 09:13:06;;;;;;;9.53;2.37;;;;;;;;;;5134779;27;20289;-84
2023/10/09 09:15:39;;;;;;;12.90;7.53;;;;;;;;;;5134011;27;20197;-84
2023/10/09 09:18:10;;;;;;;3.03;2.10;;;;;;;;;;5133675;27;20235;-84
2023/10/09 09:20:41;;;;;;;3.97;3.37;;;;;;;;;;5134494;27;20243;-84
2023/10/09 09:23:12;;;;;;;3.10;2.37;;;;;;;;;;5135301;27;20261;-84
2023/10/09 09:25:44;;;;;;;3.00;1.57;;;;;;;;;;5133876;27;20233;-84
2023/10/09 09:28:19;;;;;;;1.50;1.40;;;;;;;;;;5134204;27;20298;-85
2023/10/09 09:30:50;;;;;;;4.87;3.03;;;;;;;;;;5134104;27;20201;-84
2023/10/09 09:33:26;;;;;;;2.97;1.50;;;;;;;;;;5134497;27;20205;-84
2023/10/09 09:35:59;;;;;;;10.30;2.73;;;;;;;;;;5134255;27;20205;-84
2023/10/09 09:38:28;;;;;;;5.73;3.83;;;;;;;;;;5133980;27;20214;-84
2023/10/09 09:41:02;;;;;;;2.00;1.70;;;;;;;;;;5134179;27;20208;-84
2023/10/09 09:43:35;;;;;;;0.90;0.90;;;;;;;;;;5134264;27;20207;-84
2023/10/09 09:46:08;;;;;;;4.63;3.03;;;;;;;;;;5133017;27;20210;-84
2023/10/09 09:48:44;;;;;;;5.20;3.13;;;;;;;;;;5134019;27;20192;-84
2023/10/09 09:51:15;;;;;;;3.30;1.83;;;;;;;;;;5134336;27;20198;-84
2023/10/09 09:53:47;;;;;;;3.80;3.40;;;;;;;;;;5134059;27;20298;-84
2023/10/09 09:56:17;;;;;;;5.73;2.07;;;;;;;;;;5133263;27;20258;-84
2023/10/09 09:58:53;;;;;;;5.67;3.23;;;;;;;;;;5134138;27;20234;-84
2023/10/09 10:01:24;;;;;;;9.53;4.97;;;;;;;;;;5135190;27;20241;-84
2023/10/09 10:03:57;;;;;;;3.73;2.73;;;;;;;;;;5134455;27;20233;-84
2023/10/09 10:06:28;;;;;;;5.67;3.20;;;;;;;;;;5133749;27;20194;-84
2023/10/09 10:08:56;;;;;;;2.80;2.17;;;;;;;;;;5133891;27;20207;-84
2023/10/09 10:11:45;;;;;;;7.00;2.87;;;;;;;;;;5134117;27;20192;-84
2023/10/09 10:14:28;;;;;;;9.07;3.80;;;;;;;;;;5133230;27;20234;-84
2023/10/09 10:17:16;;;;;;;2.33;1.87;;;;;;;;;;5132950;27;20240;-84
2023/10/09 10:20:25;;;;;;;1.17;0.90;;;;;;;;;;5133050;27;20218;-84
2023/10/09 10:22:51;;;;;;;5.40;2.30;;;;;;;;;;5133003;27;20201;-84
2023/10/09 10:25:41;;;;;;;5.50;3.97;;;;;;;;;;5132603;27;20205;-84
2023/10/09 10:28:42;;;;;;;14.30;4.30;;;;;;;;;;5133385;27;20207;-84
2023/10/09 10:31:14;;;;;;;10.53;4.47;;;;;;;;;;5133107;27;20206;-84
2023/10/09 10:34:06;;;;;;;6.30;3.43;;;;;;;;;;5132526;27;20202;-84
2023/10/09 10:36:35;;;;;;;12.43;4.10;;;;;;;;;;5132721;27;20248;-84
2023/10/09 10:39:09;;;;;;;9.00;3.07;;;;;;;;;;5134844;27;20198;-84
2023/10/09 10:41:50;;;;;;;5.00;2.87;;;;;;;;;;5136607;27;20207;-84
2023/10/09 10:44:36;;;;;;;2.20;2.00;;;;;;;;;;5137188;27;20208;-84
2023/10/09 10:47:22;;;;;;;9.80;3.20;;;;;;;;;;5137060;27;20199;-84
2023/10/09 10:49:51;;;;;;;7.77;3.23;;;;;;;;;;5137780;27;20200;-84
2023/10/09 10:52:35;;;;;;;6.87;2.83;;;;;;;;;;5136799;27;20242;-84
2023/10/09 10:55:48;;;;;;;13.10;3.43;;;;;;;;;;5138272;27;20203;-83
2023/10/09 10:58:23;;;;;;;4.03;1.47;;;;;;;;;;5137552;27;20264;-84
2023/10/09 11:01:13;;;;;;;4.57;2.73;;;;;;;;;;5138189;27;20230;-84
2023/10/09 11:03:55;;;;;;;9.77;2.90;;;;;;;;;;5137376;27;20238;-84
2023/10/09 11:06:36;;;;;;;15.63;4.43;;;;;;;;;;5138422;27;20220;-83
2023/10/09 11:09:21;;;;;;;4.43;2.20;;;;;;;;;;5138750;27;20204;-84
2023/10/09 11:11:55;;;;;;;16.67;3.13;;;;;;;;;;5138841;27;20249;-84
2023/10/09 11:14:23;;;;;;;9.67;5.27;;;;;;;;;;5139665;27;20244;-84
2023/10/09 11:16:57;;;;;;;6.93;3.37;;;;;;;;;;5138219;27;20296;-84
2023/10/09 11:19:32;;;;;;;4.53;2.47;;;;;;;;;;5136575;27;20317;-84
2023/10/09 11:24:44;;;;;;;3.63;2.77;;;;;;;;;;5140463;27;20199;-84
2023/10/09 11:27:18;;;;;;;3.07;2.77;;;;;;;;;;5139419;27;20207;-84
2023/10/09 11:30:05;;;;;;;3.70;2.37;;;;;;;;;;5137984;27;20226;-83
2023/10/09 11:32:39;;;;;;;3.60;2.40;;;;;;;;;;5130992;27;20279;-84
2023/10/09 11:35:20;;;;;;;7.77;3.57;;;;;;;;;;5121823;27;20240;-84
2023/10/09 11:37:55;;;;;;;6.10;3.77;;;;;;;;;;5129576;27;20222;-82
2023/10/09 11:40:47;;;;;;;8.93;3.70;;;;;;;;;;5120234;27;20214;-83
2023/10/09 11:43:16;;;;;;;7.10;2.87;;;;;;;;;;5132470;27;20475;-82
2023/10/09 11:45:54;;;;;;;1.97;1.87;;;;;;;;;;5126481;27;20203;-83
2023/10/09 11:48:31;;;;;;;6.63;2.27;;;;;;;;;;5135433;27;20203;-82
2023/10/09 11:53:49;;;;;;;6.53;3.33;;;;;;;;;;5135843;27;20209;-82
2023/10/09 11:56:19;;;;;;;5.60;3.23;;;;;;;;;;5123128;27;20261;-84
2023/10/09 11:58:49;;;;;;;4.20;1.83;;;;;;;;;;5120765;27;20287;-83
2023/10/09 12:01:20;;;;;;;7.93;2.67;;;;;;;;;;5121054;27;20217;-82
2023/10/09 12:03:50;;;;;;;3.87;2.20;;;;;;;;;;5123253;27;20260;-82
2023/10/09 12:06:22;;;;;;;4.87;2.80;;;;;;;;;;5118097;27;20230;-83
2023/10/09 12:08:53;;;;;;;2.10;1.77;;;;;;;;;;5113927;27;20202;-83
2023/10/09 12:11:28;;;;;;;3.07;2.03;;;;;;;;;;5117865;27;20200;-83
2023/10/09 12:14:00;;;;;;;5.80;2.27;;;;;;;;;;5119805;27;20195;-83
2023/10/09 12:16:29;;;;;;;9.50;3.73;;;;;;;;;;5126995;27;20215;-83
2023/10/09 12:18:59;;;;;;;4.10;2.83;;;;;;;;;;5120948;27;20235;-83
2023/10/09 12:21:29;;;;;;;7.43;2.70;;;;;;;;;;5120638;27;20222;-83
2023/10/09 12:23:58;;;;;;;2.70;1.73;;;;;;;;;;5121581;27;20203;-83
2023/10/09 12:26:34;;;;;;;2.47;2.37;;;;;;;;;;5119031;27;20254;-83
2023/10/09 12:29:10;;;;;;;1.97;1.73;;;;;;;;;;5122019;27;20229;-83
2023/10/09 12:31:39;;;;;;;3.97;3.00;;;;;;;;;;5123237;27;20226;-83
2023/10/09 12:34:08;;;;;;;7.17;3.00;;;;;;;;;;5116441;27;20288;-83
2023/10/09 12:36:38;;;;;;;5.47;2.97;;;;;;;;;;5120069;27;20236;-82
2023/10/09 12:39:08;;;;;;;7.07;4.07;;;;;;;;;;5127819;27;20209;-82
2023/10/09 12:41:41;;;;;;;4.43;2.73;;;;;;;;;;5133983;27;20210;-83
2023/10/09 12:44:14;;;;;;;3.50;1.37;;;;;;;;;;5125899;27;20201;-84
2023/10/09 12:46:51;;;;;;;1.73;1.53;;;;;;;;;;5133434;27;20201;-83
2023/10/09 12:49:25;;;;;;;11.47;2.20;;;;;;;;;;5134757;27;20257;-83
2023/10/09 12:51:56;;;;;;;4.70;3.73;;;;;;;;;;5134236;27;20199;-83
2023/10/09 12:54:27;;;;;;;5.80;4.37;;;;;;;;;;5124461;27;20205;-83
2023/10/09 12:56:57;;;;;;;4.20;2.90;;;;;;;;;;5120930;27;20313;-83
2023/10/09 12:59:26;;;;;;;7.93;3.13;;;;;;;;;;5117076;27;20244;-82
2023/10/09 13:01:57;;;;;;;10.27;3.23;;;;;;;;;;5116230;27;20220;-83
2023/10/09 13:04:31;;;;;;;11.10;2.57;;;;;;;;;;5123884;27;20228;-83
2023/10/09 13:07:04;;;;;;;3.50;3.00;;;;;;;;;;5118368;27;20205;-83
2023/10/09 13:09:42;;;;;;;6.10;3.43;;;;;;;;;;5122252;27;20207;-83
2023/10/09 13:12:17;;;;;;;6.23;3.87;;;;;;;;;;5126595;27;20234;-83
2023/10/09 13:14:49;;;;;;;6.40;3.37;;;;;;;;;;5116208;27;20211;-83
2023/10/09 13:17:20;;;;;;;7.37;2.47;;;;;;;;;;5116327;27;20323;-82
2023/10/09 13:19:49;;;;;;;9.80;2.90;;;;;;;;;;5121236;27;20220;-83
2023/10/09 13:22:20;;;;;;;4.20;2.03;;;;;;;;;;5119871;27;20297;-83
2023/10/09 13:25:03;;;;;;;8.80;3.53;;;;;;;;;;5118421;27;20211;-82
2023/10/09 13:27:34;;;;;;;6.23;3.30;;;;;;;;;;5114653;27;20196;-83
2023/10/09 13:30:05;;;;;;;7.87;3.73;;;;;;;;;;5115988;27;20479;-82
2023/10/09 13:32:35;;;;;;;3.73;2.83;;;;;;;;;;5116113;27;20202;-83
2023/10/09 13:35:04;;;;;;;4.57;1.47;;;;;;;;;;5122993;27;20429;-84
2023/10/09 13:37:37;;;;;;;5.50;2.30;;;;;;;;;;5118779;27;20203;-83
2023/10/09 13:40:11;;;;;;;7.90;1.70;;;;;;;;;;5122136;27;20198;-83
2023/10/09 13:42:40;;;;;;;3.13;2.87;;;;;;;;;;5122868;27;20220;-83
2023/10/09 13:45:15;;;;;;;6.40;2.77;;;;;;;;;;5118623;27;20198;-84
2023/10/09 13:47:45;;;;;;;4.33;2.40;;;;;;;;;;5115142;27;20240;-83
2023/10/09 13:50:13;;;;;;;2.80;1.93;;;;;;;;;;5118740;27;20228;-86
2023/10/09 13:52:43;;;;;;;8.23;3.23;;;;;;;;;;5126160;27;20200;-84
2023/10/09 13:55:16;;;;;;;1.90;1.80;;;;;;;;;;5121222;27;20205;-85
2023/10/09 13:57:45;;;;;;;4.67;2.47;;;;;;;;;;5120352;27;20200;-85
2023/10/09 14:00:17;;;;;;;6.80;3.93;;;;;;;;;;5117666;27;20239;-84
2023/10/09 14:02:46;;;;;;;5.00;1.83;;;;;;;;;;5122241;27;20296;-86
2023/10/09 14:05:15;;;;;;;6.87;4.20;;;;;;;;;;5125077;27;20226;-86
2023/10/09 14:07:45;;;;;;;4.20;2.17;;;;;;;;;;5124295;27;20200;-85
2023/10/09 14:10:18;;;;;;;7.70;3.17;;;;;;;;;;5114991;27;20258;-85
2023/10/09 14:12:46;;;;;;;8.27;3.90;;;;;;;;;;5113923;27;20213;-82
2023/10/09 14:15:17;;;;;;;8.90;4.07;;;;;;;;;;5116921;27;20209;-82
2023/10/09 14:17:47;;;;;;;5.40;3.50;;;;;;;;;;5112761;28;20225;-82
2023/10/09 14:20:31;;;;;;;5.00;3.57;;;;;;;;;;5117628;28;20255;-82
2023/10/09 14:23:06;;;;;;;9.70;3.37;;;;;;;;;;5126002;28;20219;-83
2023/10/09 14:25:37;;;;;;;2.80;2.37;;;;;;;;;;5116388;28;20202;-82
2023/10/09 14:28:07;;;;;;;6.87;2.83;;;;;;;;;;5132528;27;20204;-81
2023/10/09 14:30:41;;;;;;;1.87;1.63;;;;;;;;;;5115520;27;20237;-81
2023/10/09 14:33:13;;;;;;;7.03;3.93;;;;;;;;;;5112614;28;20208;-81
2023/10/09 14:35:42;;;;;;;7.07;2.53;;;;;;;;;;5114947;27;20198;-83
2023/10/09 14:38:13;;;;;;;4.83;2.97;;;;;;;;;;5118677;27;20298;-82
2023/10/09 14:40:44;;;;;;;9.40;3.77;;;;;;;;;;5118772;28;20201;-81
2023/10/09 14:43:19;;;;;;;1.93;1.77;;;;;;;;;;5116513;27;20213;-82
2023/10/09 14:45:53;;;;;;;8.80;3.40;;;;;;;;;;5115349;28;20211;-82
2023/10/09 14:48:25;;;;;;;9.67;4.60;;;;;;;;;;5114230;28;20196;-81
2023/10/09 14:50:54;;;;;;;0.70;0.70;;;;;;;;;;5118369;28;20191;-82
2023/10/09 14:53:26;;;;;;;1.10;1.10;;;;;;;;;;5118419;28;20195;-82
2023/10/09 14:55:59;;;;;;;9.63;4.47;;;;;;;;;;5120248;27;20210;-81
2023/10/09 14:58:29;;;;;;;4.93;3.73;;;;;;;;;;5113192;28;20210;-81
2023/10/09 15:00:57;;;;;;;9.37;3.10;;;;;;;;;;5121282;27;20245;-82
2023/10/09 15:03:28;;;;;;;5.93;3.57;;;;;;;;;;5118174;28;20213;-82
2023/10/09 15:05:56;;;;;;;6.23;3.50;;;;;;;;;;5120365;28;20287;-82
2023/10/09 15:08:29;;;;;;;2.73;1.30;;;;;;;;;;5117840;28;20211;-84
2023/10/09 15:10:58;;;;;;;4.87;1.60;;;;;;;;;;5125314;28;20197;-83
2023/10/09 15:13:28;;;;;;;2.77;1.60;;;;;;;;;;5116068;27;20205;-83
2023/10/09 15:15:57;;;;;;;5.77;4.20;;;;;;;;;;5123766;27;20197;-83
2023/10/09 15:18:28;;;;;;;4.40;3.07;;;;;;;;;;5114804;28;20357;-82
2023/10/09 15:20:57;;;;;;;6.83;2.77;;;;;;;;;;5123754;28;20262;-82
2023/10/09 15:23:27;;;;;;;5.30;2.90;;;;;;;;;;5121484;27;20233;-84
2023/10/09 15:25:56;;;;;;;3.97;2.40;;;;;;;;;;5117315;27;20207;-84
2023/10/09 15:28:28;;;;;;;3.43;1.67;;;;;;;;;;5122268;27;20263;-82
2023/10/09 15:30:56;;;;;;;1.60;1.50;;;;;;;;;;5123626;27;20194;-82
2023/10/09 15:33:30;;;;;;;4.43;2.77;;;;;;;;;;5124864;27;20248;-82
2023/10/09 15:36:11;;;;;;;16.97;7.13;;;;;;;;;;5116344;27;20233;-82
2023/10/09 15:38:41;;;;;;;2.43;1.60;;;;;;;;;;5123396;27;20217;-83
2023/10/09 15:41:11;;;;;;;0.60;0.60;;;;;;;;;;5124356;27;20212;-84
2023/10/09 15:43:41;;;;;;;1.60;1.50;;;;;;;;;;5130255;27;20222;-84
2023/10/09 15:46:14;;;;;;;1.93;1.73;;;;;;;;;;5132476;27;20208;-86
2023/10/09 15:48:44;;;;;;;3.30;2.30;;;;;;;;;;5125057;27;20204;-86
2023/10/09 15:51:14;;;;;;;2.87;1.67;;;;;;;;;;5134441;27;20208;-85
2023/10/09 15:53:45;;;;;;;14.87;1.83;;;;;;;;;;5119690;27;20197;-86
2023/10/09 15:56:14;;;;;;;1.93;1.70;;;;;;;;;;5124841;27;20212;-85
2023/10/09 15:58:43;;;;;;;8.13;4.63;;;;;;;;;;5121068;27;20312;-85
2023/10/09 16:01:13;;;;;;;3.13;2.53;;;;;;;;;;5119181;27;20203;-86
2023/10/09 16:03:43;;;;;;;6.30;3.30;;;;;;;;;;5122269;27;20300;-85
2023/10/09 16:06:12;;;;;;;1.67;1.37;;;;;;;;;;5117342;27;20208;-86
2023/10/09 16:08:41;;;;;;;2.23;2.03;;;;;;;;;;5120500;27;20218;-84
2023/10/09 16:11:12;;;;;;;1.60;1.50;;;;;;;;;;5118646;27;20206;-85
2023/10/09 16:13:43;;;;;;;1.57;1.33;;;;;;;;;;5119966;27;20193;-85
2023/10/09 16:16:13;;;;;;;3.80;2.27;;;;;;;;;;5131666;27;20316;-85
2023/10/09 16:18:43;;;;;;;2.43;2.07;;;;;;;;;;5125470;27;20325;-86
2023/10/09 16:21:12;;;;;;;0.60;0.60;;;;;;;;;;5133559;27;20213;-87
2023/10/09 16:23:42;;;;;;;2.23;1.30;;;;;;;;;;5125189;27;20214;-86
2023/10/09 16:26:12;;;;;;;7.40;4.00;;;;;;;;;;5120412;27;20241;-86
2023/10/09 16:28:59;;;;;;;0.30;0.30;;;;;;;;;;5116082;27;20272;-86
2023/10/09 16:31:28;;;;;;;1.77;1.67;;;;;;;;;;5119894;27;20228;-86
2023/10/09 16:33:56;;;;;;;4.87;2.07;;;;;;;;;;5118293;27;20199;-85
2023/10/09 16:36:26;;;;;;;5.23;3.20;;;;;;;;;;5121329;27;20209;-86
2023/10/09 16:38:55;;;;;;;5.93;2.67;;;;;;;;;;5115489;27;20205;-86
2023/10/09 16:41:26;;;;;;;1.00;1.00;;;;;;;;;;5118892;27;20217;-90